Time;durP1;ratioP1;P1;durP2;ratioP2;P2;SDS_P1;SDS_P2;PMS_P1;PMS_P2;Temp;Humidity;BMP_temperature;BMP_pressure;BME280_temperature;BME280_humidity;BME280_pressure;Samples;Min_cycle;Max_cycle;Signal;HPM_P1;HPM_P2
2022/12/24 04:03:08;;;;;;;;;;;9.40;99.90;;;;;;4910651;29;20022;-65
2022/12/24 04:05:35;;;;;;;;;;;9.40;99.90;;;;;;4912551;29;19963;-67
2022/12/24 04:08:01;;;;;;;;;;;9.40;99.90;;;;;;4927959;29;20022;-66
2022/12/24 04:10:28;;;;;;;;;;;9.40;99.90;;;;;;4911933;29;19965;-66
2022/12/24 04:12:54;;;;;;;;;;;9.40;99.90;;;;;;4943020;28;20033;-67
2022/12/24 04:15:21;;;;;;;;;;;9.30;99.90;;;;;;4943268;29;20376;-66
2022/12/24 04:17:48;;;;;;;;;;;9.40;99.90;;;;;;4930869;29;20030;-64
2022/12/24 04:20:16;;;;;;;;;;;9.50;99.90;;;;;;4942562;29;19934;-66
2022/12/24 04:22:42;;;;;;;;;;;9.50;99.90;;;;;;4927248;29;19928;-66
2022/12/24 04:25:10;;;;;;;;;;;9.40;99.90;;;;;;4933971;29;20025;-66
2022/12/24 04:27:36;;;;;;;;;;;9.40;99.90;;;;;;4927523;29;19965;-66
2022/12/24 04:30:03;;;;;;;;;;;9.40;99.90;;;;;;4941420;29;20013;-66
2022/12/24 04:32:30;;;;;;;;;;;9.40;99.90;;;;;;4931046;29;19950;-66
2022/12/24 04:34:56;;;;;;;;;;;9.40;99.90;;;;;;4943573;29;20018;-66
2022/12/24 04:37:24;;;;;;;;;;;9.30;99.90;;;;;;4932610;29;19966;-66
2022/12/24 04:39:51;;;;;;;;;;;9.40;99.90;;;;;;4930672;29;19930;-66
2022/12/24 04:42:17;;;;;;;;;;;9.40;99.90;;;;;;4932036;29;19994;-66
2022/12/24 04:44:44;;;;;;;;;;;9.50;99.90;;;;;;4933450;29;20021;-66
2022/12/24 04:47:10;;;;;;;;;;;9.50;99.90;;;;;;4945091;29;20022;-67
2022/12/24 04:49:37;;;;;;;;;;;9.60;99.90;;;;;;4933310;29;19962;-67
2022/12/24 04:52:04;;;;;;;;;;;9.60;99.90;;;;;;4946208;28;19990;-66
2022/12/24 04:54:32;;;;;;;;;;;9.80;99.90;;;;;;4947382;29;19950;-66
2022/12/24 04:56:59;;;;;;;;;;;9.80;99.90;;;;;;4932502;29;20513;-66
2022/12/24 04:59:26;;;;;;;;;;;9.90;99.90;;;;;;4944540;28;20346;-67
2022/12/24 05:01:52;;;;;;;;;;;9.90;99.90;;;;;;4942369;29;19927;-67
2022/12/24 05:04:19;;;;;;;;;;;10.00;99.90;;;;;;4945714;29;19985;-66
2022/12/24 05:06:46;;;;;;;;;;;10.00;99.90;;;;;;4950059;28;19927;-66
2022/12/24 05:09:13;;;;;;;;;;;10.00;99.90;;;;;;4946398;28;19931;-66
2022/12/24 05:11:41;;;;;;;;;;;10.00;99.90;;;;;;4946427;29;20299;-64
2022/12/24 05:14:07;;;;;;;;;;;10.00;99.90;;;;;;4947056;28;19935;-66
2022/12/24 05:16:34;;;;;;;;;;;10.10;99.90;;;;;;4945586;28;19938;-66
2022/12/24 05:19:01;;;;;;;;;;;10.10;99.90;;;;;;4948441;28;19927;-66
2022/12/24 05:21:28;;;;;;;;;;;10.10;99.90;;;;;;4948445;28;19927;-66
2022/12/24 05:26:42;;;;;;;;;;;10.10;99.90;;;;;;4942500;29;20292;-66
2022/12/24 05:29:10;;;;;;;;;;;10.00;99.90;;;;;;4947558;28;19938;-66
2022/12/24 05:31:39;;;;;;;;;;;10.10;99.90;;;;;;4944531;28;19935;-66
2022/12/24 05:34:05;;;;;;;;;;;10.00;99.90;;;;;;4946663;29;19931;-67
2022/12/24 05:36:32;;;;;;;;;;;10.00;99.90;;;;;;4943996;29;19927;-66
2022/12/24 05:38:59;;;;;;;;;;;9.90;99.90;;;;;;4949112;29;19926;-66
2022/12/24 05:41:26;;;;;;;;;;;9.90;99.90;;;;;;4945571;29;19926;-67
2022/12/24 05:43:54;;;;;;;;;;;9.90;99.90;;;;;;4930043;29;19934;-66
2022/12/24 05:46:21;;;;;;;;;;;9.90;99.90;;;;;;4939491;29;19934;-66
2022/12/24 05:48:49;;;;;;;;;;;10.00;99.90;;;;;;4938251;29;20358;-66
2022/12/24 05:51:18;;;;;;;;;;;10.10;99.90;;;;;;4932426;29;19931;-67
2022/12/24 05:53:45;;;;;;;;;;;10.10;99.90;;;;;;4944023;28;19927;-66
2022/12/24 05:56:13;;;;;;;;;;;10.20;99.90;;;;;;4949127;29;19927;-66
2022/12/24 05:58:40;;;;;;;;;;;10.20;99.90;;;;;;4944807;29;19935;-67
2022/12/24 06:01:09;;;;;;;;;;;10.20;99.90;;;;;;4944623;29;19927;-66
2022/12/24 06:03:36;;;;;;;;;;;10.20;99.90;;;;;;4915164;29;19927;-66
2022/12/24 06:06:04;;;;;;;;;;;10.20;99.90;;;;;;4939895;29;19927;-67
2022/12/24 06:08:31;;;;;;;;;;;10.20;99.90;;;;;;4931321;29;19983;-67
2022/12/24 06:10:59;;;;;;;;;;;10.30;99.90;;;;;;4935812;29;19931;-66
2022/12/24 06:13:26;;;;;;;;;;;10.30;99.90;;;;;;4932577;29;19926;-66
2022/12/24 06:15:54;;;;;;;;;;;10.30;99.90;;;;;;4932142;29;19982;-66
2022/12/24 06:18:22;;;;;;;;;;;10.30;99.90;;;;;;4925011;29;19927;-65
2022/12/24 06:20:50;;;;;;;;;;;10.30;99.90;;;;;;4916506;29;19931;-66
2022/12/24 06:23:17;;;;;;;;;;;10.30;99.90;;;;;;4937567;29;19994;-66
2022/12/24 06:25:44;;;;;;;;;;;10.40;99.90;;;;;;4937406;29;19931;-66
2022/12/24 06:28:11;;;;;;;;;;;10.30;99.90;;;;;;4931187;29;20334;-67
2022/12/24 06:30:38;;;;;;;;;;;10.30;99.90;;;;;;4940109;29;20363;-67
2022/12/24 06:33:05;;;;;;;;;;;10.20;99.90;;;;;;4937330;28;19934;-67
2022/12/24 06:35:33;;;;;;;;;;;10.30;99.90;;;;;;4933018;29;19927;-67
2022/12/24 06:38:00;;;;;;;;;;;10.40;99.90;;;;;;4913908;29;19931;-66
2022/12/24 06:40:27;;;;;;;;;;;10.40;99.90;;;;;;4937586;29;19927;-68
2022/12/24 06:42:54;;;;;;;;;;;10.40;99.90;;;;;;4931358;29;20033;-67
2022/12/24 06:45:21;;;;;;;;;;;10.40;99.90;;;;;;4916455;29;19938;-67
2022/12/24 06:47:48;;;;;;;;;;;10.30;99.90;;;;;;4944914;28;20386;-66
2022/12/24 06:50:15;;;;;;;;;;;10.30;99.90;;;;;;4914936;29;20031;-66
2022/12/24 06:52:43;;;;;;;;;;;10.40;99.90;;;;;;4938012;29;19934;-67
2022/12/24 06:55:10;;;;;;;;;;;10.40;99.90;;;;;;4917512;29;19953;-66
2022/12/24 06:57:36;;;;;;;;;;;10.40;99.90;;;;;;4935551;29;19927;-65
2022/12/24 07:00:04;;;;;;;;;;;10.40;99.90;;;;;;4934165;29;19927;-66
2022/12/24 07:02:31;;;;;;;;;;;10.30;99.90;;;;;;4916697;29;19927;-66
2022/12/24 07:04:57;;;;;;;;;;;10.30;99.90;;;;;;4916130;29;19931;-66
2022/12/24 07:07:24;;;;;;;;;;;10.40;99.90;;;;;;4937341;29;20355;-66
2022/12/24 07:09:52;;;;;;;;;;;10.40;99.90;;;;;;4918855;29;19934;-67
2022/12/24 07:12:19;;;;;;;;;;;10.40;99.90;;;;;;4936135;29;19928;-66
2022/12/24 07:14:46;;;;;;;;;;;10.40;99.90;;;;;;4920924;29;19932;-67
2022/12/24 07:17:13;;;;;;;;;;;10.40;99.90;;;;;;4938471;28;19943;-66
2022/12/24 07:19:39;;;;;;;;;;;10.40;99.90;;;;;;4932687;29;19982;-66
2022/12/24 07:22:06;;;;;;;;;;;10.40;99.90;;;;;;4942952;28;19935;-67
2022/12/24 07:24:33;;;;;;;;;;;10.30;99.90;;;;;;4916338;29;19990;-67
2022/12/24 07:27:01;;;;;;;;;;;10.40;99.90;;;;;;4937022;29;19938;-67
2022/12/24 07:29:28;;;;;;;;;;;10.40;99.90;;;;;;4914213;29;19927;-67
2022/12/24 07:31:55;;;;;;;;;;;10.40;99.90;;;;;;4937252;29;20347;-66
2022/12/24 07:34:22;;;;;;;;;;;10.50;99.90;;;;;;4934938;29;19966;-66
2022/12/24 07:36:48;;;;;;;;;;;10.50;99.90;;;;;;4920150;29;19927;-67
2022/12/24 07:39:15;;;;;;;;;;;10.50;99.90;;;;;;4946051;29;20457;-67
2022/12/24 07:41:42;;;;;;;;;;;10.50;99.90;;;;;;4920521;29;19978;-66
2022/12/24 07:44:13;;;;;;;;;;;10.50;99.90;;;;;;4939800;29;20026;-67
2022/12/24 07:46:40;;;;;;;;;;;10.50;99.90;;;;;;4926145;29;20022;-66
2022/12/24 07:49:06;;;;;;;;;;;10.50;99.90;;;;;;4942582;28;20006;-66
2022/12/24 07:51:33;;;;;;;;;;;10.50;99.90;;;;;;4919827;29;19935;-66
2022/12/24 07:54:00;;;;;;;;;;;10.50;99.90;;;;;;4938252;29;19992;-67
2022/12/24 07:56:27;;;;;;;;;;;10.50;99.90;;;;;;4940121;28;19971;-68
2022/12/24 07:58:53;;;;;;;;;;;10.50;99.90;;;;;;4932735;29;19983;-67
2022/12/24 08:01:22;;;;;;;;;;;10.60;99.90;;;;;;4930853;29;19938;-66
2022/12/24 08:03:50;;;;;;;;;;;10.60;99.90;;;;;;4920483;29;19927;-67
2022/12/24 08:06:16;;;;;;;;;;;10.70;99.90;;;;;;4923167;29;19985;-67
2022/12/24 08:08:43;;;;;;;;;;;10.70;99.90;;;;;;4943942;29;19927;-66
2022/12/24 08:11:10;;;;;;;;;;;10.70;99.90;;;;;;4932537;29;20179;-67
2022/12/24 08:13:37;;;;;;;;;;;10.80;99.90;;;;;;4938271;28;20334;-67
2022/12/24 08:16:04;;;;;;;;;;;10.70;99.90;;;;;;4916710;29;19931;-66
2022/12/24 08:18:32;;;;;;;;;;;10.60;99.90;;;;;;4934210;29;19934;-66
2022/12/24 08:20:59;;;;;;;;;;;10.60;99.90;;;;;;4935545;28;19931;-67
2022/12/24 08:23:25;;;;;;;;;;;10.50;99.90;;;;;;4934093;29;19927;-66
2022/12/24 08:25:52;;;;;;;;;;;10.50;99.90;;;;;;4916344;29;19927;-66
2022/12/24 08:28:20;;;;;;;;;;;10.50;99.90;;;;;;4933608;29;20366;-66
2022/12/24 08:30:48;;;;;;;;;;;10.50;99.90;;;;;;4931027;29;19928;-66
2022/12/24 08:33:14;;;;;;;;;;;10.60;99.90;;;;;;4934805;29;19935;-67
2022/12/24 08:35:46;;;;;;;;;;;10.70;99.90;;;;;;4939657;29;19927;-66
2022/12/24 08:38:13;;;;;;;;;;;10.70;99.90;;;;;;4915582;29;19935;-65
2022/12/24 08:40:40;;;;;;;;;;;10.80;99.90;;;;;;4937014;29;20363;-67
2022/12/24 08:43:06;;;;;;;;;;;10.80;99.90;;;;;;4942960;28;19959;-67
2022/12/24 08:45:33;;;;;;;;;;;10.80;99.90;;;;;;4916629;29;19927;-66
2022/12/24 08:48:00;;;;;;;;;;;10.80;99.90;;;;;;4919475;29;19981;-67
2022/12/24 08:50:27;;;;;;;;;;;10.80;99.90;;;;;;4937427;29;19927;-67
2022/12/24 08:52:55;;;;;;;;;;;10.80;99.90;;;;;;4943922;28;19961;-66
2022/12/24 08:55:22;;;;;;;;;;;10.90;99.90;;;;;;4941327;29;19927;-66
2022/12/24 08:57:49;;;;;;;;;;;10.90;99.90;;;;;;4918891;29;19931;-66
2022/12/24 09:00:16;;;;;;;;;;;10.90;99.90;;;;;;4940741;28;19958;-66
2022/12/24 09:02:43;;;;;;;;;;;11.00;99.90;;;;;;4935186;29;19983;-66
2022/12/24 09:05:09;;;;;;;;;;;10.90;99.90;;;;;;4938701;29;20395;-66
2022/12/24 09:07:36;;;;;;;;;;;11.00;99.90;;;;;;4916085;29;19927;-67
2022/12/24 09:10:05;;;;;;;;;;;11.00;99.90;;;;;;4937117;29;19938;-66
2022/12/24 09:12:32;;;;;;;;;;;11.00;99.90;;;;;;4912508;29;19927;-66
2022/12/24 09:14:59;;;;;;;;;;;11.00;99.90;;;;;;4940860;29;19934;-66
2022/12/24 09:17:26;;;;;;;;;;;11.00;99.90;;;;;;4922696;29;20330;-67
2022/12/24 09:19:52;;;;;;;;;;;11.00;99.90;;;;;;4932862;29;19930;-67
2022/12/24 09:22:19;;;;;;;;;;;11.00;99.90;;;;;;4940399;29;19927;-66
2022/12/24 09:24:46;;;;;;;;;;;11.00;99.90;;;;;;4919824;29;19930;-66
2022/12/24 09:27:14;;;;;;;;;;;11.00;99.90;;;;;;4920670;29;19927;-66
2022/12/24 09:29:41;;;;;;;;;;;11.00;99.90;;;;;;4914004;29;19931;-66
2022/12/24 09:32:08;;;;;;;;;;;11.00;99.90;;;;;;4909834;29;19942;-66
2022/12/24 09:34:35;;;;;;;;;;;11.00;99.90;;;;;;4929508;29;19927;-66
2022/12/24 09:37:02;;;;;;;;;;;11.00;99.90;;;;;;4936569;29;19935;-66
2022/12/24 09:39:28;;;;;;;;;;;11.00;99.90;;;;;;4932903;28;20275;-66
2022/12/24 09:41:59;;;;;;;;;;;11.00;99.90;;;;;;4938187;29;20362;-66
2022/12/24 09:44:36;;;;;;;;;;;11.10;99.90;;;;;;4936224;29;19927;-67
2022/12/24 09:47:06;;;;;;;;;;;11.20;99.90;;;;;;4929845;29;20305;-69
2022/12/24 09:49:37;;;;;;;;;;;11.20;99.90;;;;;;4933733;29;19927;-82
2022/12/24 09:52:06;;;;;;;;;;;11.20;99.90;;;;;;4939136;28;19935;-70
2022/12/24 09:54:36;;;;;;;;;;;11.20;99.90;;;;;;4926350;29;19927;-70
2022/12/24 09:57:05;;;;;;;;;;;11.20;99.90;;;;;;4928308;29;19927;-67
2022/12/24 09:59:39;;;;;;;;;;;11.20;99.90;;;;;;4935759;29;20302;-66
2022/12/24 10:02:09;;;;;;;;;;;11.20;99.90;;;;;;4915599;29;19983;-67
2022/12/24 10:04:36;;;;;;;;;;;11.20;99.90;;;;;;4909399;29;19928;-66
2022/12/24 10:07:08;;;;;;;;;;;11.20;99.90;;;;;;4935597;29;19931;-66
2022/12/24 10:09:40;;;;;;;;;;;11.20;99.90;;;;;;4938606;29;19954;-66
2022/12/24 10:12:11;;;;;;;;;;;11.30;99.90;;;;;;4914825;29;19928;-66
2022/12/24 10:14:46;;;;;;;;;;;11.40;99.90;;;;;;4941517;28;19994;-68
2022/12/24 10:17:21;;;;;;;;;;;11.40;99.90;;;;;;4940353;29;20742;-66
2022/12/24 10:19:51;;;;;;;;;;;11.50;99.90;;;;;;4933403;29;19927;-68
2022/12/24 10:22:21;;;;;;;;;;;11.50;99.90;;;;;;4941654;28;19931;-66
2022/12/24 10:24:50;;;;;;;;;;;11.60;99.90;;;;;;4935295;28;20455;-68
2022/12/24 10:27:18;;;;;;;;;;;11.60;99.90;;;;;;4914059;29;19939;-66
2022/12/24 10:29:48;;;;;;;;;;;11.60;99.90;;;;;;4929782;29;19927;-66
2022/12/24 10:32:18;;;;;;;;;;;11.60;99.90;;;;;;4931973;29;20485;-65
2022/12/24 10:34:45;;;;;;;;;;;11.50;99.90;;;;;;4936770;28;20021;-65
2022/12/24 10:37:22;;;;;;;;;;;11.50;99.90;;;;;;4932830;29;19931;-65
2022/12/24 10:39:49;;;;;;;;;;;11.50;99.90;;;;;;4921466;29;19927;-66
2022/12/24 10:42:17;;;;;;;;;;;11.60;99.90;;;;;;4933379;29;19991;-66
2022/12/24 10:44:47;;;;;;;;;;;11.50;99.90;;;;;;4937092;29;19927;-75
2022/12/24 10:47:17;;;;;;;;;;;11.50;99.90;;;;;;4938423;28;19927;-66
2022/12/24 10:49:45;;;;;;;;;;;11.40;99.90;;;;;;4916728;29;19927;-66
2022/12/24 10:52:13;;;;;;;;;;;11.50;99.90;;;;;;4933614;29;19931;-67
2022/12/24 10:55:00;;;;;;;;;;;11.60;99.90;;;;;;4933030;29;19927;-66
2022/12/24 10:57:28;;;;;;;;;;;11.60;99.90;;;;;;4932036;29;20443;-66
2022/12/24 10:59:56;;;;;;;;;;;11.60;99.90;;;;;;4929425;28;19927;-64
2022/12/24 11:02:27;;;;;;;;;;;11.70;99.90;;;;;;4937593;28;19931;-66
2022/12/24 11:04:54;;;;;;;;;;;11.70;99.90;;;;;;4921252;29;20410;-67
2022/12/24 11:07:22;;;;;;;;;;;11.90;99.90;;;;;;4938164;29;19951;-66
2022/12/24 11:09:55;;;;;;;;;;;11.90;99.90;;;;;;4923890;29;19934;-68
2022/12/24 11:12:22;;;;;;;;;;;12.50;99.90;;;;;;4915212;29;19927;-67
2022/12/24 11:14:59;;;;;;;;;;;12.20;99.90;;;;;;4927469;29;19974;-67
2022/12/24 11:17:25;;;;;;;;;;;11.90;99.90;;;;;;4940418;29;19927;-66
2022/12/24 11:19:52;;;;;;;;;;;11.80;99.90;;;;;;4936648;29;19939;-66
2022/12/24 11:22:23;;;;;;;;;;;11.80;99.90;;;;;;4935840;29;19927;-66
2022/12/24 11:24:57;;;;;;;;;;;11.80;99.90;;;;;;4943909;29;19970;-66
2022/12/24 11:27:38;;;;;;;;;;;12.10;99.90;;;;;;4931877;29;19982;-66
2022/12/24 11:30:22;;;;;;;;;;;12.00;99.90;;;;;;4940316;29;20325;-66
2022/12/24 11:32:50;;;;;;;;;;;11.90;99.90;;;;;;4924315;29;20351;-67
2022/12/24 11:35:20;;;;;;;;;;;12.50;99.90;;;;;;4945152;28;19942;-66
2022/12/24 11:37:47;;;;;;;;;;;14.90;99.90;;;;;;4936323;29;19979;-66
2022/12/24 11:40:21;;;;;;;;;;;15.90;99.90;;;;;;4923168;29;19983;-66
2022/12/24 11:42:51;;;;;;;;;;;15.30;99.90;;;;;;4917457;29;19935;-67
2022/12/24 11:45:22;;;;;;;;;;;15.30;99.90;;;;;;4921909;29;19927;-66
2022/12/24 11:47:49;;;;;;;;;;;14.80;99.90;;;;;;4920373;29;19931;-67
2022/12/24 11:50:20;;;;;;;;;;;15.10;99.90;;;;;;4920608;29;19930;-67
2022/12/24 11:52:47;;;;;;;;;;;14.50;99.90;;;;;;4939455;29;20392;-66
2022/12/24 11:55:17;;;;;;;;;;;13.70;99.90;;;;;;4919048;29;19935;-66
2022/12/24 11:57:50;;;;;;;;;;;13.10;99.90;;;;;;4941529;29;19971;-66
2022/12/24 12:00:17;;;;;;;;;;;12.90;99.90;;;;;;4940795;29;19935;-66
2022/12/24 12:02:47;;;;;;;;;;;13.50;99.90;;;;;;4921223;29;19935;-66
2022/12/24 12:05:16;;;;;;;;;;;14.60;99.90;;;;;;4942974;28;19934;-68
2022/12/24 12:07:44;;;;;;;;;;;14.90;99.90;;;;;;4932106;29;19991;-67
2022/12/24 12:10:15;;;;;;;;;;;14.10;99.90;;;;;;4934878;29;19966;-67
2022/12/24 12:12:45;;;;;;;;;;;13.60;99.90;;;;;;4919758;29;19928;-68
2022/12/24 12:15:13;;;;;;;;;;;13.40;99.90;;;;;;4941727;29;19931;-65
2022/12/24 12:17:43;;;;;;;;;;;13.30;99.90;;;;;;4923438;29;19931;-67
2022/12/24 12:20:13;;;;;;;;;;;13.30;99.90;;;;;;4936574;29;19934;-68
2022/12/24 12:22:45;;;;;;;;;;;13.80;99.90;;;;;;4931241;29;20295;-78
2022/12/24 12:25:18;;;;;;;;;;;13.40;99.90;;;;;;4939082;29;19934;-67
2022/12/24 12:27:47;;;;;;;;;;;13.20;99.90;;;;;;4933918;29;19931;-67
2022/12/24 12:30:15;;;;;;;;;;;13.90;99.90;;;;;;4941310;29;19935;-66
2022/12/24 12:32:46;;;;;;;;;;;15.10;99.90;;;;;;4934989;29;20374;-66
2022/12/24 12:35:21;;;;;;;;;;;15.70;99.90;;;;;;4937803;28;19931;-67
2022/12/24 12:37:50;;;;;;;;;;;15.20;99.90;;;;;;4922432;29;19927;-68
2022/12/24 12:40:17;;;;;;;;;;;14.80;99.90;;;;;;4931064;29;19931;-68
2022/12/24 12:42:47;;;;;;;;;;;17.00;99.90;;;;;;4940181;29;19938;-67
2022/12/24 12:45:30;;;;;;;;;;;18.40;99.90;;;;;;4935442;29;19935;-66
2022/12/24 12:48:05;;;;;;;;;;;18.20;99.90;;;;;;4938363;29;19927;-67
2022/12/24 12:50:36;;;;;;;;;;;17.60;99.90;;;;;;4930280;29;19991;-67
2022/12/24 12:53:21;;;;;;;;;;;18.90;99.90;;;;;;4919397;29;19931;-67
2022/12/24 12:55:51;;;;;;;;;;;18.70;99.90;;;;;;4921254;29;19931;-66
2022/12/24 12:58:22;;;;;;;;;;;18.90;99.90;;;;;;4918263;29;19975;-68
2022/12/24 13:00:51;;;;;;;;;;;19.90;99.90;;;;;;4919602;29;19926;-67
2022/12/24 13:03:45;;;;;;;;;;;19.60;99.90;;;;;;4940079;28;19927;-67
2022/12/24 13:06:22;;;;;;;;;;;18.60;99.90;;;;;;4921881;29;19931;-67
2022/12/24 13:09:02;;;;;;;;;;;16.50;99.90;;;;;;4929592;29;20050;-66
2022/12/24 13:11:39;;;;;;;;;;;15.60;99.90;;;;;;4931418;29;20127;-67
2022/12/24 13:14:22;;;;;;;;;;;14.60;99.90;;;;;;4914673;29;19928;-67
2022/12/24 13:17:03;;;;;;;;;;;14.20;99.90;;;;;;4937766;29;19927;-67
2022/12/24 13:19:35;;;;;;;;;;;14.90;99.90;;;;;;4917425;29;19927;-67
2022/12/24 13:22:04;;;;;;;;;;;16.10;99.90;;;;;;4930986;29;19927;-65
2022/12/24 13:24:31;;;;;;;;;;;15.90;99.90;;;;;;4920560;29;19987;-67
2022/12/24 13:27:02;;;;;;;;;;;15.10;99.90;;;;;;4923033;29;19926;-67
2022/12/24 13:29:30;;;;;;;;;;;14.30;99.90;;;;;;4937860;29;20419;-66
2022/12/24 13:32:26;;;;;;;;;;;13.80;99.90;;;;;;4915346;29;20386;-66
2022/12/24 13:34:53;;;;;;;;;;;13.50;99.90;;;;;;4917173;29;20330;-66
2022/12/24 13:37:22;;;;;;;;;;;13.00;99.90;;;;;;4934932;29;19927;-67
2022/12/24 13:40:16;;;;;;;;;;;12.80;99.90;;;;;;4925774;29;19934;-68
2022/12/24 13:42:48;;;;;;;;;;;12.60;99.90;;;;;;4875376;29;19934;-67
2022/12/24 13:45:41;;;;;;;;;;;12.50;99.90;;;;;;4935724;29;19946;-68
2022/12/24 13:48:14;;;;;;;;;;;12.50;99.90;;;;;;4907137;29;20034;-68
2022/12/24 13:50:43;;;;;;;;;;;12.90;99.90;;;;;;4927082;29;19927;-67
2022/12/24 13:53:21;;;;;;;;;;;13.10;99.90;;;;;;4942228;29;19927;-67
2022/12/24 13:55:50;;;;;;;;;;;13.30;99.90;;;;;;4942848;28;20022;-66
2022/12/24 13:58:19;;;;;;;;;;;13.30;99.90;;;;;;4935905;29;20006;-66
2022/12/24 14:00:53;;;;;;;;;;;12.90;99.90;;;;;;4940233;29;19927;-66
2022/12/24 14:03:25;;;;;;;;;;;12.70;99.90;;;;;;4939396;29;19927;-66
2022/12/24 14:05:54;;;;;;;;;;;12.60;99.90;;;;;;4937229;29;19935;-67
2022/12/24 14:08:31;;;;;;;;;;;12.50;99.90;;;;;;4941649;29;19953;-66
2022/12/24 14:11:03;;;;;;;;;;;12.50;99.90;;;;;;4932453;29;19982;-67
2022/12/24 14:13:50;;;;;;;;;;;12.40;99.90;;;;;;4947139;28;19933;-66
2022/12/24 14:16:17;;;;;;;;;;;12.80;99.90;;;;;;4943484;29;19933;-67
2022/12/24 14:18:46;;;;;;;;;;;13.00;99.90;;;;;;4924178;29;19933;-66
2022/12/24 14:21:16;;;;;;;;;;;13.40;99.90;;;;;;4946352;29;19931;-66
2022/12/24 14:23:49;;;;;;;;;;;13.50;99.90;;;;;;4943892;29;19926;-66
2022/12/24 14:26:17;;;;;;;;;;;13.40;99.90;;;;;;4938566;29;20297;-67
2022/12/24 14:28:46;;;;;;;;;;;13.20;99.90;;;;;;4945668;29;19978;-67
2022/12/24 14:31:14;;;;;;;;;;;12.70;99.90;;;;;;4946028;28;19934;-68
2022/12/24 14:33:41;;;;;;;;;;;12.40;99.90;;;;;;4946102;28;19927;-66
2022/12/24 14:36:09;;;;;;;;;;;12.10;99.90;;;;;;4948709;28;19927;-66
2022/12/24 14:38:36;;;;;;;;;;;11.80;99.90;;;;;;4940168;28;19934;-67
2022/12/24 14:41:08;;;;;;;;;;;11.70;99.90;;;;;;4945283;28;19930;-66
2022/12/24 14:43:43;;;;;;;;;;;11.50;99.90;;;;;;4942990;28;19938;-68
2022/12/24 14:46:12;;;;;;;;;;;11.50;99.90;;;;;;4946781;29;19982;-66
2022/12/24 14:48:42;;;;;;;;;;;11.40;99.90;;;;;;4944254;29;20034;-66
2022/12/24 14:51:12;;;;;;;;;;;11.30;99.90;;;;;;4931274;29;19983;-67
2022/12/24 14:53:48;;;;;;;;;;;11.30;99.90;;;;;;4926545;29;19927;-66
2022/12/24 14:56:18;;;;;;;;;;;11.20;99.90;;;;;;4947811;28;20053;-66
2022/12/24 14:58:44;;;;;;;;;;;11.10;99.90;;;;;;4943749;29;19927;-66
2022/12/24 15:01:22;;;;;;;;;;;11.10;99.90;;;;;;4944139;29;19930;-66
2022/12/24 15:03:59;;;;;;;;;;;11.10;99.90;;;;;;4945254;29;19927;-66
2022/12/24 15:06:27;;;;;;;;;;;11.00;99.90;;;;;;4938614;29;19926;-67
2022/12/24 15:08:53;;;;;;;;;;;10.90;99.90;;;;;;4939036;29;19931;-67
2022/12/24 15:11:23;;;;;;;;;;;10.80;99.90;;;;;;4926326;29;19927;-66
2022/12/24 15:13:52;;;;;;;;;;;10.80;99.90;;;;;;4945793;29;19982;-66
2022/12/24 15:16:22;;;;;;;;;;;10.80;99.90;;;;;;4942221;29;20029;-65
2022/12/24 15:18:50;;;;;;;;;;;10.80;99.90;;;;;;4926920;29;19931;-66
2022/12/24 15:21:18;;;;;;;;;;;10.80;99.90;;;;;;4946574;29;19927;-66
2022/12/24 15:23:46;;;;;;;;;;;10.70;99.90;;;;;;4945326;29;19927;-66
2022/12/24 15:26:16;;;;;;;;;;;10.60;99.90;;;;;;4942987;28;19936;-66
2022/12/24 15:28:44;;;;;;;;;;;10.50;99.90;;;;;;4945903;29;19927;-65
2022/12/24 15:31:12;;;;;;;;;;;10.50;99.90;;;;;;4945795;29;20449;-66
2022/12/24 15:33:39;;;;;;;;;;;10.50;99.90;;;;;;4944659;28;19927;-67
2022/12/24 15:36:07;;;;;;;;;;;10.40;99.90;;;;;;4936435;29;19931;-66
2022/12/24 15:38:35;;;;;;;;;;;10.40;99.90;;;;;;4933269;28;19927;-67
2022/12/24 15:41:03;;;;;;;;;;;10.40;99.90;;;;;;4941216;29;19931;-66
2022/12/24 15:43:30;;;;;;;;;;;10.40;99.90;;;;;;4940588;29;19927;-66
2022/12/24 15:45:58;;;;;;;;;;;10.30;99.90;;;;;;4939408;28;19927;-67
2022/12/24 15:48:26;;;;;;;;;;;10.30;99.90;;;;;;4942894;28;19931;-67
2022/12/24 15:50:54;;;;;;;;;;;10.30;99.90;;;;;;4924768;29;19995;-67
2022/12/24 15:53:22;;;;;;;;;;;10.30;99.90;;;;;;4920305;29;19926;-65
2022/12/24 15:56:00;;;;;;;;;;;10.30;99.90;;;;;;4946787;29;19927;-67
2022/12/24 15:58:27;;;;;;;;;;;10.30;99.90;;;;;;4923011;29;19934;-67
2022/12/24 16:01:06;;;;;;;;;;;10.30;99.90;;;;;;4924654;29;19934;-67
2022/12/24 16:03:33;;;;;;;;;;;10.30;99.90;;;;;;4919164;29;19928;-66
2022/12/24 16:06:01;;;;;;;;;;;10.20;99.90;;;;;;4942777;29;19927;-67
2022/12/24 16:08:32;;;;;;;;;;;10.10;99.90;;;;;;4944198;29;19973;-66
2022/12/24 16:11:14;;;;;;;;;;;10.10;99.90;;;;;;4927056;29;19964;-66
2022/12/24 16:13:42;;;;;;;;;;;10.00;99.90;;;;;;4945128;29;20026;-66
2022/12/24 16:16:12;;;;;;;;;;;9.90;99.90;;;;;;4932439;29;19926;-66
2022/12/24 16:18:42;;;;;;;;;;;9.90;99.90;;;;;;4940972;28;19931;-67
2022/12/24 16:21:09;;;;;;;;;;;9.80;99.90;;;;;;4936935;29;20031;-68
2022/12/24 16:23:37;;;;;;;;;;;9.80;99.90;;;;;;4948651;29;19930;-66
2022/12/24 16:26:04;;;;;;;;;;;9.80;99.90;;;;;;4925929;29;19938;-66
2022/12/24 16:28:31;;;;;;;;;;;9.70;99.90;;;;;;4947427;28;19943;-66
2022/12/24 16:30:58;;;;;;;;;;;9.70;99.90;;;;;;4934051;29;19930;-66
2022/12/24 16:33:27;;;;;;;;;;;9.70;99.90;;;;;;4947226;28;19931;-67
2022/12/24 16:35:54;;;;;;;;;;;9.60;99.90;;;;;;4944177;29;19970;-67
2022/12/24 16:38:21;;;;;;;;;;;9.50;99.90;;;;;;4948680;29;19930;-66
2022/12/24 16:40:48;;;;;;;;;;;9.40;99.90;;;;;;4947067;29;19934;-66
2022/12/24 16:46:00;;;;;;;;;;;9.40;99.90;;;;;;4943251;29;20017;-66
2022/12/24 16:48:29;;;;;;;;;;;9.40;99.90;;;;;;4933935;29;19993;-66
2022/12/24 16:50:56;;;;;;;;;;;9.40;99.90;;;;;;4946840;28;19926;-66
2022/12/24 16:53:23;;;;;;;;;;;9.50;99.90;;;;;;4931111;29;19961;-66
2022/12/24 16:55:51;;;;;;;;;;;9.50;99.90;;;;;;4946246;29;19935;-67
2022/12/24 16:58:18;;;;;;;;;;;9.60;99.90;;;;;;4931887;29;19973;-67
2022/12/24 17:00:45;;;;;;;;;;;9.70;99.90;;;;;;4932171;29;19983;-66
2022/12/24 17:03:12;;;;;;;;;;;9.70;99.90;;;;;;4933341;29;19926;-67
2022/12/24 17:05:41;;;;;;;;;;;9.70;99.90;;;;;;4946429;28;19927;-66
2022/12/24 17:08:08;;;;;;;;;;;9.70;99.90;;;;;;4930622;29;19926;-66
2022/12/24 17:10:35;;;;;;;;;;;9.70;99.90;;;;;;4946929;28;20469;-66
2022/12/24 17:13:02;;;;;;;;;;;9.70;99.90;;;;;;4945904;29;19927;-66
2022/12/24 17:15:29;;;;;;;;;;;9.60;99.90;;;;;;4948014;29;19926;-66
2022/12/24 17:17:56;;;;;;;;;;;9.60;99.90;;;;;;4931663;29;19933;-69
2022/12/24 17:20:23;;;;;;;;;;;9.60;99.90;;;;;;4932384;29;19926;-69
2022/12/24 17:22:51;;;;;;;;;;;9.50;99.90;;;;;;4922960;29;19927;-68
2022/12/24 17:25:18;;;;;;;;;;;9.50;99.90;;;;;;4929479;29;19927;-69
2022/12/24 17:27:45;;;;;;;;;;;9.40;99.90;;;;;;4943769;28;19978;-69
2022/12/24 17:30:12;;;;;;;;;;;9.30;99.90;;;;;;4942258;28;19927;-69
2022/12/24 17:32:39;;;;;;;;;;;9.30;99.90;;;;;;4949002;29;19927;-69
2022/12/24 17:35:06;;;;;;;;;;;9.20;99.90;;;;;;4946560;29;19927;-69
2022/12/24 17:37:33;;;;;;;;;;;9.20;99.90;;;;;;4934129;29;20454;-69
2022/12/24 17:40:01;;;;;;;;;;;9.10;99.90;;;;;;4945937;29;19934;-69
2022/12/24 17:42:28;;;;;;;;;;;9.10;99.90;;;;;;4938080;29;20008;-68
2022/12/24 17:44:55;;;;;;;;;;;9.10;99.90;;;;;;4940788;29;19927;-66
2022/12/24 17:47:22;;;;;;;;;;;9.20;99.90;;;;;;4938482;28;19931;-67
2022/12/24 17:49:48;;;;;;;;;;;9.10;99.90;;;;;;4929870;29;19934;-67
2022/12/24 17:52:15;;;;;;;;;;;9.00;99.90;;;;;;4943990;29;19931;-67
2022/12/24 17:54:42;;;;;;;;;;;8.90;99.90;;;;;;4946697;28;19930;-67
2022/12/24 17:57:10;;;;;;;;;;;8.80;99.90;;;;;;4941145;29;20264;-68
2022/12/24 17:59:37;;;;;;;;;;;8.80;99.90;;;;;;4927957;29;19933;-69
2022/12/24 18:02:06;;;;;;;;;;;8.80;99.90;;;;;;4927661;29;20198;-66
2022/12/24 18:04:32;;;;;;;;;;;8.60;99.90;;;;;;4932096;29;19935;-66
2022/12/24 18:07:01;;;;;;;;;;;8.60;99.90;;;;;;4928903;29;19927;-66
2022/12/24 18:09:28;;;;;;;;;;;8.60;99.90;;;;;;4939095;29;19937;-69
2022/12/24 18:11:54;;;;;;;;;;;8.60;99.90;;;;;;4938955;29;19942;-67
2022/12/24 18:14:23;;;;;;;;;;;8.70;99.90;;;;;;4938509;29;19954;-69
2022/12/24 18:16:50;;;;;;;;;;;8.70;99.90;;;;;;4919637;29;20283;-68
2022/12/24 18:19:16;;;;;;;;;;;8.80;99.90;;;;;;4936691;29;19935;-69
2022/12/24 18:21:43;;;;;;;;;;;8.90;99.90;;;;;;4941755;28;19992;-67
2022/12/24 18:24:10;;;;;;;;;;;8.90;99.90;;;;;;4944464;28;19958;-67
2022/12/24 18:26:37;;;;;;;;;;;8.90;99.90;;;;;;4927981;29;19927;-67
2022/12/24 18:29:04;;;;;;;;;;;8.90;99.90;;;;;;4936409;29;19927;-67
2022/12/24 18:31:33;;;;;;;;;;;8.80;99.90;;;;;;4919033;29;19959;-67
2022/12/24 18:34:01;;;;;;;;;;;8.80;99.90;;;;;;4943857;28;19927;-67
2022/12/24 18:36:28;;;;;;;;;;;8.90;99.90;;;;;;4932313;29;20022;-68
2022/12/24 18:38:55;;;;;;;;;;;8.90;99.90;;;;;;4940452;29;19927;-68